Billings, MT

9:32 PM MST on February 11, 2016 (GMT -0700)
South of Castle Rock Park | | Change Station
CLOSE
Current Station
Personal Weather Station
Location: Billings, MT
Elevation: 3297 ft
Nearby Weather Stations

Elev 3297 ft 45.82 °N, 108.50 °W | Updated 4 seconds ago

Mostly Cloudy
Mostly Cloudy
45.2 °F
Feels Like 45 °F
N
0.0
Wind Variable Wind from North
Gusts 0.0 mph

Today
High -- | Low -- °F
--% Chance of Precip.
Yesterday
High -- | Low -- °F
Precip. -- in
Pressure 30.25 in
Visibility 10.0 miles
Clouds Mostly Cloudy 16000 ft
Windchill 45 °F
Dew Point 24 °F
Humidity 43%
Rainfall 0.00 in
Snow Depth Not available.
7:22 AM 5:33 PM
Waxing Crescent, 17% visible
METAR KBIL 120353Z 06005KT 10SM BKN160 07/M05 A3024 RMK AO2 SLP244 T00671050
Pressure 30.25 in
Visibility 10.0 miles
Clouds Mostly Cloudy 16000 ft
Windchill 45 °F
Dew Point 24 °F
Humidity 43%
Rainfall 0.00 in
Snow Depth Not available.
7:22 AM 5:33 PM
Waxing Crescent, 17% visible
METAR KBIL 120353Z 06005KT 10SM BKN160 07/M05 A3024 RMK AO2 SLP244 T00671050

10-Day Weather Forecast

Almanac

Astronomy

Feb. 11, 2016 Rise Set
Actual Time
Civil Twilight
Nautical Twilight
Astronomical Twilight
Moon
Length of Visible Light
Length of Day
Tomorrow will be .
, % of the Moon is Illuminated

Today's Extremes

State Highs State Lows

Community

WunderPhotos

Upload Photos

1,892,266 photos uploaded!

WunderBlog® & News

Nearby

Air Quality

  Air Quality AQ Index Pollutant
Not available.

Snow Depth

Station Depth Elevation

Earthquake Activity

City Distance Mag. Time & Date
Minimum magnitude displayed is 2.5.

Coastal Water Temperatures

Place Temperature

Stations

Nearby Weather Stations

Station Location Temp. Windchill Dew Point Humidity Wind Precip. Elev Updated Type
                   

Watches & Warnings

There are currently no watches in effect.